Time;durP1;ratioP1;P1;durP2;ratioP2;P2;SDS_P1;SDS_P2;PMS_P1;PMS_P2;Temp;Humidity;BMP_temperature;BMP_pressure;BME280_temperature;BME280_humidity;BME280_pressure;Samples;Min_cycle;Max_cycle;Signal;HPM_P1;HPM_P2
2022/03/16 00:02:24;;;;;;;6.60;4.45;;;;;;;2.64;46.99;96210.44;5015570;28;20701;-59
2022/03/16 00:04:50;;;;;;;8.65;4.60;;;;;;;2.34;48.64;96219.59;5017533;28;20105;-59
2022/03/16 00:07:16;;;;;;;228.52;8.75;;;;;;;2.24;46.33;96228.16;5017409;28;20722;-58
2022/03/16 00:09:41;;;;;;;62.55;4.50;;;;;;;2.52;45.16;96220.09;5007493;28;20098;-59
2022/03/16 00:12:07;;;;;;;10.10;5.63;;;;;;;2.30;46.20;96219.00;5007978;28;20074;-59
2022/03/16 00:14:33;;;;;;;7.03;5.10;;;;;;;2.31;47.16;96210.16;5017727;28;20089;-58
2022/03/16 00:16:58;;;;;;;13.52;9.30;;;;;;;2.27;47.34;96213.97;5013363;28;20648;-58
2022/03/16 00:19:23;;;;;;;7.32;4.72;;;;;;;2.24;47.64;96217.66;5006951;28;20094;-58
2022/03/16 00:21:49;;;;;;;7.85;4.95;;;;;;;2.31;46.96;96218.03;5010490;28;20116;-58
2022/03/16 00:24:14;;;;;;;5.13;4.00;;;;;;;2.24;47.85;96217.66;5012119;28;20082;-58
2022/03/16 00:26:40;;;;;;;7.80;4.95;;;;;;;2.41;47.28;96217.41;5021296;28;20125;-57
2022/03/16 00:29:05;;;;;;;18.52;12.65;;;;;;;2.11;49.17;96215.06;5017228;28;20106;-58
2022/03/16 00:31:32;;;;;;;8.63;6.18;;;;;;;2.26;47.69;96213.16;5021700;28;20104;-58
2022/03/16 00:33:57;;;;;;;7.82;4.90;;;;;;;2.18;48.24;96218.09;5010956;28;20677;-59
2022/03/16 00:36:23;;;;;;;7.65;4.10;;;;;;;2.22;48.03;96216.09;5016748;28;20093;-58
2022/03/16 00:38:48;;;;;;;12.75;8.95;;;;;;;2.23;47.57;96213.38;5019644;28;20432;-58
2022/03/16 00:41:14;;;;;;;21.58;15.07;;;;;;;1.99;49.47;96214.19;5017832;28;20232;-58
2022/03/16 00:43:40;;;;;;;11.00;6.70;;;;;;;2.07;47.89;96208.34;5021497;28;20062;-58
2022/03/16 00:46:05;;;;;;;7.65;4.75;;;;;;;2.20;46.76;96225.88;5021153;28;20105;-58
2022/03/16 00:48:31;;;;;;;7.82;4.43;;;;;;;2.16;47.41;96221.78;5021139;28;20447;-58
2022/03/16 00:50:56;;;;;;;10.27;7.00;;;;;;;2.14;47.36;96229.78;5021138;28;20078;-58
2022/03/16 00:53:21;;;;;;;18.20;12.45;;;;;;;2.07;47.62;96225.91;5020961;28;20635;-58
2022/03/16 00:55:47;;;;;;;16.65;11.60;;;;;;;1.70;49.01;96226.75;5021262;28;20077;-58
2022/03/16 00:58:12;;;;;;;9.95;6.50;;;;;;;1.75;48.48;96227.25;5015244;28;20105;-58
2022/03/16 01:00:38;;;;;;;14.35;9.07;;;;;;;1.92;48.15;96227.84;5013880;28;20166;-58
2022/03/16 01:03:03;;;;;;;12.15;6.45;;;;;;;1.91;47.57;96220.91;5017308;28;20082;-58
2022/03/16 01:05:28;;;;;;;8.98;5.22;;;;;;;1.87;47.00;96231.63;5015604;28;20148;-58
2022/03/16 01:07:54;;;;;;;6.65;5.20;;;;;;;1.87;46.70;96226.38;5005053;28;20071;-58
2022/03/16 01:10:19;;;;;;;7.15;4.60;;;;;;;1.84;46.49;96217.88;4995569;28;20109;-58
2022/03/16 01:12:45;;;;;;;9.80;5.93;;;;;;;1.84;46.56;96220.50;5003469;28;20109;-58
2022/03/16 01:15:10;;;;;;;14.98;6.72;;;;;;;1.79;46.69;96218.19;5005230;28;20082;-58
2022/03/16 01:17:36;;;;;;;20.85;10.40;;;;;;;1.63;47.04;96218.44;5004404;28;20506;-58
2022/03/16 01:20:01;;;;;;;11.65;6.78;;;;;;;1.65;46.76;96215.69;5004511;28;20095;-58
2022/03/16 01:22:26;;;;;;;11.85;6.82;;;;;;;1.66;46.32;96209.53;5003867;28;20535;-58
2022/03/16 01:24:52;;;;;;;12.43;6.60;;;;;;;1.65;46.75;96203.41;4998597;28;20110;-58
2022/03/16 01:27:17;;;;;;;13.50;8.32;;;;;;;1.64;46.81;96203.53;4995177;28;20078;-58
2022/03/16 01:29:42;;;;;;;14.77;9.88;;;;;;;1.58;47.04;96210.03;5029633;28;20697;-58
2022/03/16 01:32:08;;;;;;;10.88;6.93;;;;;;;1.52;47.00;96203.41;5026061;28;20078;-58
2022/03/16 01:34:35;;;;;;;11.23;7.13;;;;;;;1.60;47.00;96202.91;4997072;28;20090;-58
2022/03/16 01:37:00;;;;;;;11.75;6.18;;;;;;;1.61;47.23;96199.34;4986513;28;20587;-58
2022/03/16 01:39:26;;;;;;;11.98;7.93;;;;;;;1.64;47.48;96200.91;5001176;28;20199;-58
2022/03/16 01:41:51;;;;;;;10.52;7.05;;;;;;;1.66;47.71;96205.09;4986177;28;20643;-58
2022/03/16 01:44:17;;;;;;;8.32;5.68;;;;;;;1.71;48.10;96199.53;4999401;28;20102;-58
2022/03/16 01:46:42;;;;;;;11.10;7.55;;;;;;;1.77;47.95;96199.06;5019901;28;20097;-58
2022/03/16 01:49:08;;;;;;;9.07;6.18;;;;;;;1.80;48.15;96204.13;5023406;28;20101;-58
2022/03/16 01:51:33;;;;;;;8.82;5.10;;;;;;;1.94;47.98;96202.31;5040684;28;20763;-58
2022/03/16 01:53:59;;;;;;;12.07;6.65;;;;;;;1.96;47.61;96200.41;4998759;28;20114;-59
2022/03/16 01:56:24;;;;;;;11.68;7.15;;;;;;;1.95;48.45;96193.47;5006328;28;20097;-58
2022/03/16 01:58:49;;;;;;;11.05;7.60;;;;;;;1.93;48.70;96193.59;5028400;28;20659;-58
2022/03/16 02:01:15;;;;;;;11.30;7.15;;;;;;;1.86;49.17;96189.72;5043718;28;20124;-58
2022/03/16 02:03:41;;;;;;;9.43;6.43;;;;;;;1.89;48.43;96189.50;5017548;28;20088;-58
2022/03/16 02:06:08;;;;;;;11.23;6.05;;;;;;;1.98;48.22;96190.66;5018341;28;20208;-58
2022/03/16 02:08:35;;;;;;;9.18;5.35;;;;;;;2.04;47.54;96192.81;5037457;28;20576;-58
2022/03/16 02:11:00;;;;;;;13.95;8.32;;;;;;;2.01;47.83;96190.44;5030970;28;20419;-58
2022/03/16 02:13:26;;;;;;;7.80;5.40;;;;;;;2.04;47.79;96190.19;5041012;28;20105;-58
2022/03/16 02:15:51;;;;;;;8.38;5.05;;;;;;;2.07;47.71;96189.97;5024842;28;20093;-58
2022/03/16 02:18:16;;;;;;;8.00;5.00;;;;;;;2.08;47.28;96191.63;5038755;28;20491;-58
2022/03/16 02:20:42;;;;;;;6.70;4.72;;;;;;;2.09;47.00;96190.72;5010588;28;20121;-59
2022/03/16 02:23:08;;;;;;;8.27;5.30;;;;;;;2.10;47.05;96189.75;4989716;28;20082;-58
2022/03/16 02:25:34;;;;;;;10.60;6.40;;;;;;;2.10;47.00;96188.91;4997806;28;20122;-58
2022/03/16 02:28:00;;;;;;;10.40;7.10;;;;;;;2.00;47.54;96184.31;5001960;28;20144;-58
2022/03/16 02:30:27;;;;;;;8.57;4.90;;;;;;;2.10;46.58;96187.13;5003427;28;20146;-59
2022/03/16 02:32:52;;;;;;;10.95;7.30;;;;;;;2.04;46.92;96192.81;5002088;28;20185;-58
2022/03/16 02:35:18;;;;;;;11.82;7.32;;;;;;;2.01;47.71;96195.69;5003873;28;20074;-59
2022/03/16 02:37:43;;;;;;;12.10;7.40;;;;;;;1.96;48.98;96196.00;5003109;28;20106;-59
2022/03/16 02:40:10;;;;;;;12.05;6.97;;;;;;;2.00;47.59;96200.09;4998992;28;20070;-58
2022/03/16 02:42:36;;;;;;;10.02;6.25;;;;;;;2.02;47.57;96192.09;4994914;28;20543;-58
2022/03/16 02:45:02;;;;;;;13.45;7.53;;;;;;;2.00;47.42;96193.97;5003043;28;20110;-58
2022/03/16 02:47:28;;;;;;;11.38;7.72;;;;;;;1.94;47.73;96195.25;5003778;28;20443;-58
2022/03/16 02:49:53;;;;;;;9.43;6.00;;;;;;;1.91;47.29;96200.75;5002870;28;20117;-58
2022/03/16 02:52:19;;;;;;;9.90;5.47;;;;;;;1.98;46.40;96203.78;5002907;28;20109;-59
2022/03/16 02:54:44;;;;;;;9.73;6.70;;;;;;;1.95;47.04;96207.47;5003570;28;20093;-59
2022/03/16 02:57:09;;;;;;;8.50;6.30;;;;;;;1.94;47.40;96204.94;5003241;28;20106;-59
2022/03/16 02:59:36;;;;;;;10.85;6.90;;;;;;;1.92;47.59;96205.06;5003220;28;20590;-59
2022/03/16 03:02:01;;;;;;;9.73;6.93;;;;;;;1.94;47.50;96204.94;5033953;28;20466;-58
2022/03/16 03:04:27;;;;;;;11.57;6.65;;;;;;;1.91;47.60;96203.38;5042431;28;20243;-58
2022/03/16 03:06:52;;;;;;;13.98;6.03;;;;;;;1.98;47.50;96201.16;5042877;28;20135;-58
2022/03/16 03:09:18;;;;;;;10.98;6.35;;;;;;;1.97;47.11;96199.44;5006259;28;20114;-58
2022/03/16 03:11:43;;;;;;;11.38;6.93;;;;;;;1.93;47.67;96203.25;5003014;28;20105;-58
2022/03/16 03:14:08;;;;;;;11.55;7.25;;;;;;;1.93;47.81;96204.09;5027523;28;20124;-58
2022/03/16 03:16:34;;;;;;;10.73;6.50;;;;;;;1.95;47.95;96196.97;5031719;28;20106;-58
2022/03/16 03:18:59;;;;;;;10.13;6.25;;;;;;;2.03;47.19;96200.81;4989584;28;20074;-58
2022/03/16 03:21:25;;;;;;;10.88;5.65;;;;;;;2.14;47.01;96196.47;5005221;28;20106;-58
2022/03/16 03:23:50;;;;;;;8.32;5.43;;;;;;;2.14;47.32;96198.25;5005646;28;20131;-58
2022/03/16 03:26:15;;;;;;;8.43;5.45;;;;;;;2.19;47.26;96198.78;5018872;28;20410;-59
2022/03/16 03:28:41;;;;;;;9.85;5.60;;;;;;;2.26;47.47;96200.00;5026424;28;20493;-58
2022/03/16 03:31:06;;;;;;;11.20;6.93;;;;;;;2.02;48.48;96205.22;5042324;28;20085;-58
2022/03/16 03:33:32;;;;;;;7.35;5.32;;;;;;;2.09;48.56;96205.63;5041268;28;20151;-58
2022/03/16 03:35:57;;;;;;;9.00;5.75;;;;;;;2.29;47.57;96203.34;5042210;28;20150;-59
2022/03/16 03:38:23;;;;;;;8.32;5.78;;;;;;;2.38;47.91;96203.50;5032260;28;20090;-58
2022/03/16 03:40:51;;;;;;;9.50;6.03;;;;;;;2.45;47.80;96200.44;5031995;28;20102;-59
2022/03/16 03:43:16;;;;;;;11.07;5.88;;;;;;;2.41;47.91;96194.56;5042408;28;20090;-58
2022/03/16 03:45:42;;;;;;;9.48;6.00;;;;;;;2.45;47.59;96185.50;5041778;28;20109;-59
2022/03/16 03:48:07;;;;;;;9.00;5.70;;;;;;;2.46;48.13;96191.59;5041665;28;20077;-58
2022/03/16 03:50:33;;;;;;;11.93;5.97;;;;;;;2.54;47.68;96186.63;5033318;28;20105;-58
2022/03/16 03:52:58;;;;;;;10.90;6.63;;;;;;;2.36;48.24;96194.06;5038178;28;20532;-59
2022/03/16 03:55:24;;;;;;;10.77;6.68;;;;;;;2.17;48.87;96192.78;5042172;28;20550;-58
2022/03/16 03:57:49;;;;;;;8.48;5.70;;;;;;;2.13;48.91;96192.16;5041918;28;20694;-59
2022/03/16 04:00:15;;;;;;;10.80;6.78;;;;;;;2.20;49.14;96195.19;5041193;28;20109;-58
2022/03/16 04:02:48;;;;;;;11.45;6.72;;;;;;;2.29;48.92;96193.69;5041891;28;20135;-58
2022/03/16 04:05:13;;;;;;;10.27;6.63;;;;;;;2.23;48.96;96200.22;5041549;28;20635;-58
2022/03/16 04:07:39;;;;;;;9.20;6.85;;;;;;;2.17;49.03;96200.66;5039094;28;20065;-58
2022/03/16 04:10:05;;;;;;;10.10;6.63;;;;;;;2.15;49.62;96199.94;4995387;28;20130;-59
2022/03/16 04:12:30;;;;;;;10.57;6.80;;;;;;;2.20;49.21;96205.69;5009588;28;20185;-59
2022/03/16 04:14:55;;;;;;;9.93;7.03;;;;;;;1.65;52.01;96219.16;5029056;28;20450;-59
2022/03/16 04:17:21;;;;;;;10.35;7.15;;;;;;;2.01;51.05;96224.56;5015411;28;20102;-58
2022/03/16 04:19:46;;;;;;;11.50;7.10;;;;;;;2.43;49.04;96218.09;4982474;28;20079;-58
2022/03/16 04:22:12;;;;;;;10.88;7.50;;;;;;;2.19;50.13;96222.41;5000788;28;20117;-59
2022/03/16 04:24:37;;;;;;;11.07;6.82;;;;;;;2.43;49.45;96223.38;5001669;28;20137;-58
2022/03/16 04:27:03;;;;;;;11.30;7.22;;;;;;;2.36;49.74;96221.19;5001645;28;20443;-59
2022/03/16 04:29:28;;;;;;;11.35;7.90;;;;;;;2.38;49.49;96215.81;5001566;28;20141;-58
2022/03/16 04:31:54;;;;;;;13.32;7.53;;;;;;;2.29;49.97;96219.97;5001451;28;20102;-58
2022/03/16 04:34:19;;;;;;;10.77;7.70;;;;;;;2.33;50.05;96223.19;4999945;28;20113;-58
2022/03/16 04:36:44;;;;;;;11.43;7.75;;;;;;;2.37;49.77;96230.75;5007216;28;20109;-58
2022/03/16 04:39:10;;;;;;;10.77;7.53;;;;;;;2.56;49.44;96223.31;5020158;28;20074;-59
2022/03/16 04:41:35;;;;;;;12.13;7.75;;;;;;;2.39;50.06;96223.59;5034435;28;20094;-59
2022/03/16 04:44:01;;;;;;;13.45;7.63;;;;;;;2.50;49.25;96221.97;5041783;28;20614;-59
2022/03/16 04:46:26;;;;;;;11.70;8.10;;;;;;;2.53;49.15;96233.09;5045180;28;20084;-58
2022/03/16 04:48:52;;;;;;;11.50;7.57;;;;;;;2.53;48.99;96222.56;5044779;28;20141;-59
2022/03/16 04:51:17;;;;;;;11.38;7.10;;;;;;;2.65;49.11;96226.09;5035814;28;20305;-58
2022/03/16 04:53:42;;;;;;;11.38;7.75;;;;;;;2.48;49.56;96224.72;5044837;28;20139;-58
2022/03/16 04:56:08;;;;;;;11.30;7.93;;;;;;;2.47;49.46;96228.28;5044831;28;20085;-59
2022/03/16 04:58:33;;;;;;;11.80;7.68;;;;;;;2.43;50.29;96231.25;5045442;28;20485;-58
2022/03/16 05:00:59;;;;;;;12.15;8.15;;;;;;;2.45;49.83;96229.38;5036759;28;20466;-58
2022/03/16 05:03:24;;;;;;;12.15;7.70;;;;;;;2.37;49.85;96230.75;5036765;28;20081;-58
2022/03/16 05:05:49;;;;;;;10.20;8.00;;;;;;;2.41;49.33;96222.66;5044607;28;20104;-58
2022/03/16 05:08:15;;;;;;;11.25;7.88;;;;;;;2.31;50.66;96225.09;5029560;28;20152;-58
2022/03/16 05:10:40;;;;;;;11.10;7.70;;;;;;;2.39;49.46;96228.84;5003090;28;20090;-59
2022/03/16 05:13:06;;;;;;;10.95;7.97;;;;;;;2.26;50.06;96228.06;5018034;28;20101;-59
2022/03/16 05:15:31;;;;;;;10.77;8.00;;;;;;;2.27;49.98;96225.31;5042544;28;20093;-58
2022/03/16 05:17:57;;;;;;;11.13;8.02;;;;;;;2.47;49.33;96223.03;5000933;28;20157;-58
2022/03/16 05:20:22;;;;;;;10.95;7.65;;;;;;;2.53;49.50;96227.81;4994637;28;20169;-59
2022/03/16 05:22:49;;;;;;;11.13;8.07;;;;;;;2.37;49.60;96233.38;4992104;28;20502;-58
2022/03/16 05:25:17;;;;;;;12.35;7.65;;;;;;;2.27;51.07;96229.72;4991074;28;20616;-59
2022/03/16 05:27:42;;;;;;;10.70;7.53;;;;;;;2.35;49.75;96230.00;4993212;28;20075;-58
2022/03/16 05:30:08;;;;;;;11.77;7.80;;;;;;;2.63;48.69;96230.63;5001660;28;20118;-58
2022/03/16 05:32:33;;;;;;;11.25;8.18;;;;;;;2.75;48.38;96235.94;5000734;28;20102;-59
2022/03/16 05:34:59;;;;;;;9.90;7.47;;;;;;;2.23;50.61;96231.75;5018755;28;20073;-58
2022/03/16 05:37:24;;;;;;;12.57;7.85;;;;;;;2.73;48.54;96233.41;5016913;28;20125;-59
2022/03/16 05:39:50;;;;;;;10.38;7.70;;;;;;;2.62;49.36;96231.59;5023863;28;20521;-59
2022/03/16 05:42:15;;;;;;;11.85;7.68;;;;;;;2.42;49.95;96235.69;5018391;28;20106;-59
2022/03/16 05:44:40;;;;;;;10.30;7.55;;;;;;;2.43;49.43;96237.34;5009399;28;20102;-59
2022/03/16 05:47:06;;;;;;;10.00;7.35;;;;;;;2.66;49.07;96237.47;5014693;28;20077;-59
2022/03/16 05:49:31;;;;;;;9.88;7.65;;;;;;;2.55;49.43;96245.31;5014220;28;20224;-58
2022/03/16 05:51:57;;;;;;;11.90;7.53;;;;;;;2.13;51.48;96252.59;5019841;28;20089;-59
2022/03/16 05:54:22;;;;;;;12.50;7.60;;;;;;;2.57;50.31;96260.00;5013176;28;20135;-58
2022/03/16 05:56:48;;;;;;;9.65;7.38;;;;;;;2.48;49.29;96250.16;5021787;28;20135;-59
2022/03/16 05:59:13;;;;;;;12.68;7.72;;;;;;;2.59;49.80;96252.84;5020205;28;20082;-59
2022/03/16 06:01:38;;;;;;;9.20;7.32;;;;;;;2.60;49.23;96251.06;5004781;28;20117;-59
2022/03/16 06:04:04;;;;;;;9.70;7.60;;;;;;;2.60;49.10;96254.53;5021520;28;20811;-58
2022/03/16 06:06:31;;;;;;;11.05;7.55;;;;;;;2.56;49.59;96260.97;5013980;28;20442;-59
2022/03/16 06:08:56;;;;;;;9.45;7.28;;;;;;;2.64;49.32;96261.25;5003232;28;20113;-59
2022/03/16 06:11:22;;;;;;;10.98;7.15;;;;;;;2.63;50.00;96269.25;4996171;28;20548;-59
2022/03/16 06:13:47;;;;;;;11.57;7.57;;;;;;;2.74;49.13;96271.06;4998133;28;20117;-59
2022/03/16 06:16:13;;;;;;;12.63;7.68;;;;;;;2.94;48.63;96279.28;4999357;28;20277;-58
2022/03/16 06:18:38;;;;;;;10.60;7.30;;;;;;;2.64;49.20;96276.16;5003864;28;20345;-59
2022/03/16 06:21:03;;;;;;;9.13;6.97;;;;;;;3.12;48.52;96275.28;5001177;28;20109;-59
2022/03/16 06:23:29;;;;;;;13.73;7.40;;;;;;;2.99;48.07;96285.06;5001752;28;20105;-59
2022/03/16 06:25:55;;;;;;;10.75;7.45;;;;;;;2.53;49.83;96287.47;5000721;28;20130;-59
2022/03/16 06:28:20;;;;;;;10.15;7.25;;;;;;;2.78;49.37;96283.91;5000360;28;20082;-59
2022/03/16 06:30:45;;;;;;;10.52;7.40;;;;;;;2.71;49.42;96279.19;5001927;28;20281;-59
2022/03/16 06:33:11;;;;;;;10.10;7.43;;;;;;;2.96;49.17;96285.28;5001337;28;20110;-60
2022/03/16 06:35:36;;;;;;;9.85;7.50;;;;;;;3.15;48.42;96274.22;5003902;28;20347;-59
2022/03/16 06:38:02;;;;;;;10.48;7.10;;;;;;;3.35;47.99;96290.31;4995672;28;20262;-59
2022/03/16 06:40:27;;;;;;;10.65;7.70;;;;;;;3.04;49.09;96282.94;5002877;28;20094;-59
2022/03/16 06:42:59;;;;;;;9.60;6.88;;;;;;;3.34;48.41;96286.84;4992732;28;20170;-59
2022/03/16 06:45:26;;;;;;;11.30;7.50;;;;;;;3.33;48.50;96287.78;4997722;28;20569;-60
2022/03/16 06:47:54;;;;;;;10.32;7.57;;;;;;;3.43;47.73;96288.78;4991736;28;20110;-59
2022/03/16 06:50:20;;;;;;;9.90;7.22;;;;;;;3.22;48.57;96291.22;5000738;28;20121;-60
2022/03/16 06:52:46;;;;;;;10.00;7.03;;;;;;;3.48;47.86;96293.72;4995037;28;20130;-60
2022/03/16 06:55:11;;;;;;;11.70;7.32;;;;;;;3.59;47.62;96292.06;4999253;28;20105;-59
2022/03/16 06:57:37;;;;;;;10.00;7.20;;;;;;;3.85;47.29;96292.72;5009287;28;20100;-59
2022/03/16 07:00:03;;;;;;;10.93;8.00;;;;;;;3.96;46.48;96296.28;5011646;28;20496;-60
2022/03/16 07:02:29;;;;;;;12.20;7.25;;;;;;;3.84;47.30;96296.28;5020545;28;20504;-59
2022/03/16 07:04:54;;;;;;;9.65;7.13;;;;;;;4.29;46.41;96291.97;5021413;28;20109;-60
2022/03/16 07:07:20;;;;;;;9.48;7.38;;;;;;;4.19;47.01;96290.03;5021927;28;20569;-59
2022/03/16 07:09:45;;;;;;;10.02;7.22;;;;;;;4.17;46.46;96291.97;5006562;28;20335;-60
2022/03/16 07:12:11;;;;;;;9.70;7.43;;;;;;;4.24;46.95;96275.66;5019216;28;20109;-60
2022/03/16 07:14:37;;;;;;;10.10;7.35;;;;;;;4.01;47.52;96275.69;5021366;28;20562;-60
2022/03/16 07:17:02;;;;;;;11.50;7.38;;;;;;;4.59;46.39;96272.00;5022734;28;20113;-60
2022/03/16 07:19:28;;;;;;;11.27;7.32;;;;;;;4.75;46.47;96274.25;5011606;28;20070;-60
2022/03/16 07:21:56;;;;;;;12.25;7.95;;;;;;;4.67;46.25;96277.50;5022501;28;20546;-60
2022/03/16 07:24:22;;;;;;;10.50;7.45;;;;;;;4.47;46.52;96275.63;5020312;28;20426;-60
2022/03/16 07:26:48;;;;;;;9.77;7.55;;;;;;;4.61;46.41;96269.25;5011676;28;20621;-59
2022/03/16 07:29:13;;;;;;;10.32;7.13;;;;;;;4.75;46.27;96279.50;5020503;28;20137;-59
2022/03/16 07:31:38;;;;;;;10.27;7.90;;;;;;;4.92;45.98;96280.78;5020826;28;20486;-59
2022/03/16 07:34:04;;;;;;;11.32;7.43;;;;;;;4.98;45.80;96282.06;5012505;28;20110;-59
2022/03/16 07:36:31;;;;;;;10.15;7.63;;;;;;;5.01;45.69;96278.34;5014733;28;20128;-59
2022/03/16 07:38:57;;;;;;;10.32;7.43;;;;;;;4.93;46.25;96279.81;5013626;28;20116;-59
2022/03/16 07:41:22;;;;;;;8.43;6.25;;;;;;;4.80;46.66;96277.31;5020518;28;20102;-59
2022/03/16 07:43:47;;;;;;;13.52;8.07;;;;;;;5.21;45.81;96280.19;5022819;28;20109;-59
2022/03/16 07:46:13;;;;;;;10.68;7.40;;;;;;;4.88;46.70;96282.00;5017777;28;20106;-59
2022/03/16 07:48:40;;;;;;;9.82;7.38;;;;;;;4.92;46.02;96274.66;5017810;28;20093;-59
2022/03/16 07:51:07;;;;;;;9.75;7.90;;;;;;;5.06;46.58;96282.31;5028739;28;20117;-59
2022/03/16 07:53:33;;;;;;;10.95;7.97;;;;;;;5.27;46.04;96280.66;4993276;28;20117;-60
2022/03/16 07:55:58;;;;;;;11.05;8.32;;;;;;;5.45;45.87;96275.63;4990276;28;20479;-60
2022/03/16 07:58:23;;;;;;;11.38;7.65;;;;;;;5.53;45.80;96286.38;4987440;28;20102;-60
2022/03/16 08:00:49;;;;;;;9.88;7.25;;;;;;;5.34;46.58;96281.81;4991864;28;20820;-60
2022/03/16 08:03:14;;;;;;;11.07;8.25;;;;;;;5.69;45.96;96280.66;4987129;28;20082;-59
2022/03/16 08:05:40;;;;;;;10.40;8.00;;;;;;;5.57;46.09;96289.59;4999938;28;20140;-60
2022/03/16 08:08:06;;;;;;;11.30;7.95;;;;;;;5.26;46.39;96289.53;5009581;28;20085;-60
2022/03/16 08:10:31;;;;;;;12.10;8.32;;;;;;;5.31;46.09;96282.91;5016337;28;20097;-60
2022/03/16 08:12:57;;;;;;;11.38;7.93;;;;;;;5.67;45.60;96277.28;5007672;28;20129;-60
2022/03/16 08:15:22;;;;;;;10.70;7.88;;;;;;;5.33;46.20;96275.69;4991630;28;20082;-59
2022/03/16 08:17:48;;;;;;;11.70;8.60;;;;;;;5.82;45.54;96287.53;4984561;28;20599;-59
2022/03/16 08:20:13;;;;;;;10.20;7.97;;;;;;;6.20;45.19;96280.72;4986407;28;20078;-60
2022/03/16 08:22:38;;;;;;;11.77;8.45;;;;;;;6.24;44.81;96279.50;4993976;28;20404;-59
2022/03/16 08:25:08;;;;;;;14.52;9.32;;;;;;;6.25;44.21;96283.81;4991537;28;20172;-59
2022/03/16 08:27:37;;;;;;;12.95;8.95;;;;;;;6.57;44.56;96279.34;4991937;28;20091;-59
2022/03/16 08:30:03;;;;;;;13.35;10.40;;;;;;;6.53;44.76;96285.03;5000258;28;20406;-60
2022/03/16 08:32:29;;;;;;;11.18;8.45;;;;;;;6.60;44.09;96276.38;5008014;28;20479;-59
2022/03/16 08:34:54;;;;;;;16.58;9.75;;;;;;;6.81;43.56;96275.47;5009686;28;20090;-59
2022/03/16 08:37:20;;;;;;;13.43;10.35;;;;;;;6.83;44.48;96283.28;5004452;28;20156;-59
2022/03/16 08:39:46;;;;;;;14.80;11.00;;;;;;;6.94;43.64;96288.41;5013781;28;20527;-59
2022/03/16 08:42:12;;;;;;;19.13;13.35;;;;;;;6.53;44.26;96292.97;5015012;28;20163;-59
2022/03/16 08:44:38;;;;;;;14.75;10.90;;;;;;;6.54;44.44;96292.81;5006958;28;20122;-58
2022/03/16 08:47:04;;;;;;;15.18;12.02;;;;;;;6.75;43.99;96289.22;5011487;28;20519;-59
2022/03/16 08:49:29;;;;;;;11.35;7.97;;;;;;;7.12;43.63;96290.38;5008500;28;20557;-59
2022/03/16 08:51:56;;;;;;;17.02;11.18;;;;;;;6.63;44.17;96285.84;5006834;28;20085;-59
2022/03/16 08:54:22;;;;;;;12.88;9.60;;;;;;;7.04;43.89;96295.53;5016925;28;20247;-59
2022/03/16 08:56:48;;;;;;;24.60;18.05;;;;;;;7.10;42.12;96308.19;5003397;28;20550;-58
2022/03/16 08:59:14;;;;;;;14.68;11.77;;;;;;;7.26;42.28;96302.34;5037401;28;20077;-58
2022/03/16 09:01:39;;;;;;;12.00;8.35;;;;;;;7.68;43.00;96311.78;5016413;28;20526;-58
2022/03/16 09:04:05;;;;;;;25.38;18.17;;;;;;;7.71;40.97;96300.91;5003837;28;20530;-59
2022/03/16 09:06:30;;;;;;;14.02;10.30;;;;;;;7.54;41.85;96297.16;5020740;28;20077;-60
2022/03/16 09:08:56;;;;;;;17.35;11.75;;;;;;;7.59;41.58;96296.75;5011594;28;20120;-60
2022/03/16 09:11:21;;;;;;;14.50;10.48;;;;;;;7.52;41.25;96297.31;5033436;28;20092;-59
2022/03/16 09:13:47;;;;;;;15.48;11.27;;;;;;;7.56;42.16;96291.72;5008926;28;20109;-60
2022/03/16 09:16:14;;;;;;;10.82;8.07;;;;;;;7.49;41.40;96287.00;5011768;28;20355;-60
2022/03/16 09:18:39;;;;;;;10.77;8.68;;;;;;;7.38;41.97;96293.28;5019694;28;20456;-60
2022/03/16 09:21:05;;;;;;;17.38;13.05;;;;;;;7.28;41.60;96288.00;5002391;28;20160;-60
2022/03/16 09:23:31;;;;;;;14.40;10.82;;;;;;;7.04;42.57;96290.25;5021101;28;20089;-59
2022/03/16 09:26:00;;;;;;;15.13;10.23;;;;;;;7.34;40.92;96280.47;5021065;28;20831;-59
2022/03/16 09:28:26;;;;;;;17.52;12.35;;;;;;;7.16;42.26;96281.16;4986086;28;20106;-61
2022/03/16 09:30:51;;;;;;;19.30;12.55;;;;;;;7.32;42.10;96269.16;5016510;28;20104;-60
2022/03/16 09:33:17;;;;;;;14.80;10.95;;;;;;;7.39;41.99;96272.94;5010746;28;20153;-60
2022/03/16 09:35:44;;;;;;;22.85;16.38;;;;;;;7.25;41.50;96290.91;5009225;28;20543;-60
2022/03/16 09:38:10;;;;;;;11.52;9.05;;;;;;;7.39;41.49;96279.03;5009183;28;20160;-60
2022/03/16 09:40:36;;;;;;;24.60;16.35;;;;;;;7.43;40.18;96279.63;5034363;28;20105;-61
2022/03/16 09:43:08;;;;;;;20.08;14.15;;;;;;;7.53;40.33;96277.81;5022252;28;20089;-60
2022/03/16 09:45:43;;;;;;;9.50;7.50;;;;;;;7.75;40.91;96280.25;5013478;28;20102;-60
2022/03/16 09:48:09;;;;;;;15.43;11.02;;;;;;;7.87;41.23;96267.69;5015570;28;20091;-64
2022/03/16 09:50:34;;;;;;;28.73;19.02;;;;;;;8.12;40.54;96284.75;5014480;28;20525;-58
2022/03/16 09:53:00;;;;;;;10.88;8.60;;;;;;;7.35;40.95;96280.31;5028763;28;20494;-59
2022/03/16 09:55:25;;;;;;;24.83;16.95;;;;;;;7.74;39.82;96283.88;5016631;28;20200;-59
2022/03/16 09:57:51;;;;;;;18.55;12.57;;;;;;;8.05;40.79;96276.56;5023647;28;20143;-59
2022/03/16 10:00:17;;;;;;;10.10;7.88;;;;;;;8.33;40.32;96282.84;5008515;28;20094;-60
2022/03/16 10:02:43;;;;;;;18.75;14.30;;;;;;;8.45;38.76;96276.38;5024418;28;20558;-59
2022/03/16 10:05:09;;;;;;;13.80;10.30;;;;;;;8.79;37.65;96273.09;5013401;28;20334;-60
2022/03/16 10:07:36;;;;;;;18.83;14.15;;;;;;;8.43;39.68;96268.53;5020908;28;20113;-66
2022/03/16 10:15:32;;;;;;;15.25;11.05;;;;;;;9.00;38.74;96258.69;5038957;28;20124;-66
2022/03/16 10:18:03;;;;;;;19.10;14.55;;;;;;;9.25;38.11;96263.41;5039833;28;20117;-67
2022/03/16 10:20:32;;;;;;;20.35;13.50;;;;;;;9.20;37.06;96261.19;5024675;28;20208;-65
2022/03/16 10:23:06;;;;;;;16.63;10.73;;;;;;;9.29;38.67;96273.53;5004215;28;20583;-65
2022/03/16 10:25:37;;;;;;;29.77;20.15;;;;;;;9.60;36.20;96277.59;5004369;28;20228;-66
2022/03/16 10:28:14;;;;;;;20.75;16.45;;;;;;;10.04;36.12;96265.22;5021687;28;20081;-64
2022/03/16 10:31:05;;;;;;;15.57;12.25;;;;;;;10.55;36.89;96264.47;5043650;28;20311;-65
2022/03/16 10:33:54;;;;;;;15.80;11.43;;;;;;;9.89;36.70;96263.16;5042923;28;20113;-66
2022/03/16 10:36:21;;;;;;;18.58;13.65;;;;;;;9.67;36.57;96256.53;5037347;28;20388;-65
2022/03/16 10:38:50;;;;;;;25.58;17.58;;;;;;;10.27;37.05;96268.19;5033232;28;20476;-66
2022/03/16 10:46:54;;;;;;;18.23;12.80;;;;;;;10.32;35.69;96273.88;5043397;28;20088;-66
2022/03/16 10:49:22;;;;;;;17.88;11.93;;;;;;;10.21;35.34;96261.66;5018063;28;20109;-65
2022/03/16 10:52:05;;;;;;;15.68;11.38;;;;;;;10.27;35.51;96265.50;4993414;28;20082;-66
2022/03/16 10:54:33;;;;;;;16.75;11.50;;;;;;;10.38;35.79;96267.06;5039992;28;20112;-66
2022/03/16 10:57:00;;;;;;;12.73;8.30;;;;;;;10.35;35.62;96267.38;5041119;28;20109;-68
2022/03/16 10:59:30;;;;;;;21.25;14.70;;;;;;;10.67;34.28;96265.00;5042547;28;20164;-67
2022/03/16 11:02:01;;;;;;;12.85;10.05;;;;;;;10.94;34.88;96265.69;5042658;28;20513;-67
2022/03/16 11:04:28;;;;;;;16.38;11.68;;;;;;;10.36;34.58;96266.38;5027405;28;20385;-65
2022/03/16 11:06:54;;;;;;;21.75;14.70;;;;;;;10.35;35.51;96275.38;5026700;28;20081;-65
2022/03/16 11:09:19;;;;;;;16.13;10.23;;;;;;;10.27;35.01;96262.84;5032024;28;20154;-67
2022/03/16 11:14:29;;;;;;;9.35;7.55;;;;;;;11.13;34.78;96264.59;5023068;28;20183;-66
2022/03/16 11:16:55;;;;;;;8.75;7.10;;;;;;;11.22;34.93;96254.78;5038705;28;20158;-68
2022/03/16 11:19:22;;;;;;;11.77;8.48;;;;;;;11.22;34.59;96252.94;5029684;28;20076;-65
2022/03/16 11:21:55;;;;;;;13.65;9.25;;;;;;;11.39;33.34;96242.25;5040229;28;20105;-66
2022/03/16 11:24:22;;;;;;;12.48;8.15;;;;;;;11.29;33.68;96241.63;5040304;28;20226;-65
2022/03/16 11:27:13;;;;;;;16.75;11.02;;;;;;;11.93;33.69;96250.69;5034461;28;20341;-68
2022/03/16 11:30:02;;;;;;;17.10;12.23;;;;;;;12.01;32.03;96240.00;5019441;28;20685;-67
2022/03/16 11:32:32;;;;;;;11.90;8.00;;;;;;;12.11;32.82;96237.97;5040446;28;20775;-65
2022/03/16 11:34:59;;;;;;;18.33;11.30;;;;;;;12.15;31.58;96239.31;5041085;28;20732;-66
2022/03/16 11:37:51;;;;;;;13.55;10.32;;;;;;;12.27;32.04;96249.56;5042044;28;20104;-68
2022/03/16 11:40:22;;;;;;;13.15;9.70;;;;;;;12.57;32.11;96268.47;5023863;28;20466;-65
2022/03/16 11:43:08;;;;;;;17.23;11.50;;;;;;;13.03;31.06;96259.69;5042117;28;20594;-65